Terminal Aerodrome Forecast
Issued by NWS

Home | Current Version | Previous Version | Text Only | Print | Product List | Glossary On
Versions: 1 2 3 4 5 6 7 8 9 10 11 12
000
FTUS43 KSGF 202300
TAFJLN
TAF
KJLN 202325Z 2100/2124 16007KT P6SM SKC
     FM211400 17008KT P6SM SKC
     FM211800 19012G20KT P6SM SCT050=

USA.gov is the U.S. government's official web portal to all federal, state and local government web resources and services.